createdAt,value
2018-09-09T00:00:15.632Z,3.50
2018-09-09T00:01:15.623Z,4.70
2018-09-09T00:02:15.623Z,2.70
2018-09-09T00:03:15.619Z,3.10
2018-09-09T00:04:15.647Z,4.40
2018-09-09T00:05:15.615Z,4.00
2018-09-09T00:06:15.627Z,2.20
2018-09-09T00:07:15.612Z,2.50
2018-09-09T00:08:15.613Z,2.40
2018-09-09T00:09:15.640Z,2.60
2018-09-09T00:10:15.624Z,3.10
2018-09-09T00:11:15.613Z,3.80
2018-09-09T00:12:15.608Z,4.90
2018-09-09T00:13:15.601Z,3.00
2018-09-09T00:14:15.633Z,2.30
2018-09-09T00:15:15.637Z,3.10
2018-09-09T00:16:15.602Z,2.60
2018-09-09T00:17:15.616Z,2.40
2018-09-09T00:18:15.597Z,3.70
2018-09-09T00:19:15.598Z,3.50
2018-09-09T00:20:15.644Z,2.70
2018-09-09T00:21:15.594Z,2.50
2018-09-09T00:22:15.594Z,5.40
2018-09-09T00:23:15.590Z,3.90
2018-09-09T00:24:15.607Z,4.10
2018-09-09T00:25:15.615Z,4.50
2018-09-09T00:26:15.583Z,5.80
2018-09-09T00:27:15.588Z,3.80
2018-09-09T00:28:15.587Z,5.30
2018-09-09T00:29:15.579Z,3.70
2018-09-09T00:30:15.612Z,3.70
2018-09-09T00:31:15.582Z,4.50
2018-09-09T00:32:15.582Z,4.20
2018-09-09T00:33:15.580Z,2.80
2018-09-09T00:34:15.608Z,3.00
2018-09-09T00:35:15.576Z,3.70
2018-09-09T00:36:15.601Z,4.40
2018-09-09T00:37:15.579Z,4.80
2018-09-09T00:38:15.572Z,3.00
2018-09-09T00:39:15.565Z,4.20
2018-09-09T00:40:15.597Z,3.10
2018-09-09T00:41:15.566Z,3.80
2018-09-09T00:42:15.557Z,4.70
2018-09-09T00:43:15.565Z,3.80
2018-09-09T00:44:15.565Z,3.90
2018-09-09T00:45:15.590Z,3.40
2018-09-09T00:46:15.562Z,3.60
2018-09-09T00:47:15.567Z,4.00
2018-09-09T00:48:15.583Z,4.90
2018-09-09T00:49:15.553Z,4.70
2018-09-09T00:50:15.587Z,3.90
2018-09-09T00:51:15.558Z,4.40
2018-09-09T00:52:15.557Z,3.90
2018-09-09T00:53:15.554Z,4.70
2018-09-09T00:54:15.559Z,4.10
2018-09-09T00:55:15.603Z,4.70
2018-09-09T00:56:15.550Z,5.60
2018-09-09T00:57:15.551Z,4.70
2018-09-09T00:58:15.571Z,3.90
2018-09-09T00:59:15.543Z,4.70
2018-09-09T01:00:15.567Z,4.30
2018-09-09T01:01:15.539Z,3.70
2018-09-09T01:02:15.540Z,4.10
2018-09-09T01:03:15.536Z,3.40
2018-09-09T01:04:15.536Z,3.60
2018-09-09T01:05:15.564Z,3.50
2018-09-09T01:06:15.544Z,4.50
2018-09-09T01:07:15.536Z,4.00
2018-09-09T01:08:15.549Z,3.50
2018-09-09T01:09:15.534Z,4.00
2018-09-09T01:10:15.558Z,4.90
2018-09-09T01:11:15.526Z,4.20
2018-09-09T01:12:15.526Z,4.90
2018-09-09T01:13:15.526Z,4.50
2018-09-09T01:14:15.525Z,4.70
2018-09-09T01:15:15.569Z,4.50
2018-09-09T01:16:15.518Z,5.20
2018-09-09T01:17:15.521Z,4.40
2018-09-09T01:18:15.513Z,4.30
2018-09-09T01:19:15.509Z,3.80
2018-09-09T01:20:15.538Z,4.10
2018-09-09T01:21:15.509Z,3.70
2018-09-09T01:22:15.503Z,4.30
2018-09-09T01:23:15.506Z,5.70
2018-09-09T01:24:15.502Z,4.50
2018-09-09T01:25:15.535Z,4.60
2018-09-09T01:26:15.503Z,4.40
2018-09-09T01:27:15.498Z,3.70
2018-09-09T01:28:15.499Z,4.20
2018-09-09T01:29:15.507Z,4.30
2018-09-09T01:30:15.516Z,4.40
2018-09-09T01:31:15.492Z,3.80
2018-09-09T01:32:15.491Z,3.40
2018-09-09T01:33:15.485Z,4.00
2018-09-09T01:34:15.490Z,3.40
2018-09-09T01:35:15.521Z,4.70
2018-09-09T01:36:15.505Z,4.80
2018-09-09T01:37:15.484Z,3.70
2018-09-09T01:38:15.481Z,3.30
2018-09-09T01:39:15.498Z,5.00
2018-09-09T01:40:15.515Z,3.60
2018-09-09T01:41:15.478Z,4.10
2018-09-09T01:42:15.473Z,4.00
2018-09-09T01:43:15.478Z,3.70
2018-09-09T01:44:15.469Z,4.30
2018-09-09T01:45:15.502Z,3.50
2018-09-09T01:46:15.658Z,3.30
2018-09-09T01:47:15.468Z,3.90
2018-09-09T01:48:15.469Z,4.70
2018-09-09T01:49:15.475Z,3.10
2018-09-09T01:50:15.491Z,3.80
2018-09-09T01:51:15.472Z,5.50
2018-09-09T01:52:15.455Z,4.20
2018-09-09T01:53:15.475Z,4.10
2018-09-09T01:54:15.459Z,4.30
2018-09-09T01:55:15.483Z,4.70
2018-09-09T01:56:15.456Z,4.00
2018-09-09T01:57:15.451Z,3.80
2018-09-09T01:58:15.451Z,4.50
2018-09-09T01:59:15.447Z,4.40
2018-09-09T02:00:15.497Z,4.80
2018-09-09T02:01:15.448Z,5.10
2018-09-09T02:02:15.443Z,5.00
2018-09-09T02:03:15.471Z,5.90
2018-09-09T02:04:15.444Z,5.30
2018-09-09T02:05:15.468Z,5.70
2018-09-09T02:06:15.445Z,4.70
2018-09-09T02:07:15.437Z,6.70
2018-09-09T02:08:15.436Z,5.00
2018-09-09T02:09:15.438Z,5.30
2018-09-09T02:10:15.477Z,5.00
2018-09-09T02:11:15.459Z,5.00
2018-09-09T02:12:15.433Z,5.30
2018-09-09T02:13:15.445Z,5.40
2018-09-09T02:14:15.429Z,4.40
2018-09-09T02:15:15.426Z,5.10
2018-09-09T02:16:15.455Z,5.20
2018-09-09T02:17:15.437Z,4.70
2018-09-09T02:18:15.418Z,4.70
2018-09-09T02:19:15.425Z,4.20
2018-09-09T02:20:15.419Z,4.00
2018-09-09T02:21:15.445Z,6.10
2018-09-09T02:22:15.420Z,4.70
2018-09-09T02:23:15.414Z,5.30
2018-09-09T02:24:15.414Z,4.70
2018-09-09T02:25:15.440Z,4.80
2018-09-09T02:26:15.531Z,4.80
2018-09-09T02:27:15.419Z,6.30
2018-09-09T02:28:15.408Z,5.60
2018-09-09T02:29:15.407Z,7.50
2018-09-09T02:30:15.439Z,5.40
2018-09-09T02:31:15.429Z,4.70
2018-09-09T02:32:15.410Z,5.10
2018-09-09T02:33:15.405Z,4.80
2018-09-09T02:34:15.406Z,4.90
2018-09-09T02:35:15.404Z,6.40
2018-09-09T02:36:15.433Z,5.20
2018-09-09T02:37:15.396Z,4.40
2018-09-09T02:38:15.401Z,5.30
2018-09-09T02:39:15.406Z,5.60
2018-09-09T02:40:15.393Z,4.60
2018-09-09T02:41:15.428Z,4.80
2018-09-09T02:42:15.399Z,4.70
2018-09-09T02:43:15.390Z,6.50
2018-09-09T02:44:15.395Z,4.90
2018-09-09T02:45:15.390Z,5.60
2018-09-09T02:46:15.421Z,5.90
2018-09-09T02:47:15.383Z,5.40
2018-09-09T02:48:15.383Z,5.80
2018-09-09T02:49:15.386Z,6.40
2018-09-09T02:50:15.380Z,6.10
2018-09-09T02:51:15.415Z,7.60
2018-09-09T02:52:15.380Z,5.90
2018-09-09T02:53:15.379Z,5.80
2018-09-09T02:54:15.381Z,5.00
2018-09-09T02:55:15.378Z,6.60
2018-09-09T02:56:15.410Z,5.20
2018-09-09T02:57:15.369Z,7.40
2018-09-09T02:58:15.382Z,5.20
2018-09-09T02:59:15.367Z,5.30
2018-09-09T03:00:15.364Z,4.60
2018-09-09T03:01:15.407Z,5.70
2018-09-09T03:02:15.365Z,5.20
2018-09-09T03:03:15.364Z,4.60
2018-09-09T03:04:15.362Z,4.40
2018-09-09T03:05:15.392Z,4.50
2018-09-09T03:06:15.513Z,4.20
2018-09-09T03:07:15.357Z,5.10
2018-09-09T03:08:15.360Z,4.40
2018-09-09T03:09:15.354Z,5.10
2018-09-09T03:10:15.382Z,4.80
2018-09-09T03:11:15.358Z,4.70
2018-09-09T03:12:15.353Z,5.50
2018-09-09T03:13:15.349Z,4.80
2018-09-09T03:14:15.349Z,5.70
2018-09-09T03:15:15.385Z,5.50
2018-09-09T03:16:15.342Z,5.50
2018-09-09T03:17:15.345Z,6.00
2018-09-09T03:18:15.341Z,5.60
2018-09-09T03:19:15.372Z,5.70
2018-09-09T03:20:15.340Z,5.50
2018-09-09T03:21:15.350Z,5.90
2018-09-09T03:22:15.340Z,6.10
2018-09-09T03:23:15.331Z,7.10
2018-09-09T03:24:15.364Z,5.60
2018-09-09T03:25:15.330Z,6.00
2018-09-09T03:26:15.331Z,5.90
2018-09-09T03:27:15.331Z,6.30
2018-09-09T03:28:15.328Z,6.20
2018-09-09T03:29:15.370Z,5.50
2018-09-09T03:30:15.328Z,6.40
2018-09-09T03:31:15.325Z,7.20
2018-09-09T03:32:15.343Z,5.80
2018-09-09T03:33:15.320Z,6.10
2018-09-09T03:34:15.350Z,6.10
2018-09-09T03:35:15.315Z,6.00
2018-09-09T03:36:15.316Z,7.10
2018-09-09T03:37:15.321Z,6.20
2018-09-09T03:38:15.313Z,5.80
2018-09-09T03:39:15.359Z,5.70
2018-09-09T03:40:15.383Z,5.90
2018-09-09T03:41:15.309Z,6.00
2018-09-09T03:42:15.317Z,5.70
2018-09-09T03:43:15.307Z,6.70
2018-09-09T03:44:15.333Z,6.40
2018-09-09T03:45:15.306Z,6.10
2018-09-09T03:46:15.300Z,6.40
2018-09-09T03:47:15.308Z,5.80
2018-09-09T03:48:15.303Z,6.10
2018-09-09T03:49:15.346Z,5.70
2018-09-09T03:50:15.304Z,5.50
2018-09-09T03:51:15.295Z,7.10
2018-09-09T03:52:15.318Z,7.00
2018-09-09T03:53:15.291Z,6.10
2018-09-09T03:54:15.319Z,5.90
2018-09-09T03:55:15.288Z,7.30
2018-09-09T03:56:15.316Z,6.20
2018-09-09T03:57:15.287Z,5.50
2018-09-09T03:58:15.289Z,5.90
2018-09-09T03:59:15.314Z,7.00
2018-09-09T04:00:15.284Z,5.50
2018-09-09T04:01:15.276Z,6.50
2018-09-09T04:02:15.313Z,5.70
2018-09-09T04:03:15.275Z,5.70
2018-09-09T04:04:15.277Z,6.50
2018-09-09T04:05:15.309Z,5.70
2018-09-09T04:06:15.289Z,5.90
2018-09-09T04:07:15.273Z,5.80
2018-09-09T04:08:15.270Z,6.00
2018-09-09T04:09:15.297Z,6.10
2018-09-09T04:10:15.328Z,5.70
2018-09-09T04:11:15.266Z,7.70
2018-09-09T04:12:15.293Z,7.10
2018-09-09T04:13:15.265Z,5.50
2018-09-09T04:14:15.261Z,5.20
2018-09-09T04:15:15.288Z,5.10
2018-09-09T04:16:15.257Z,7.20
2018-09-09T04:17:15.259Z,5.00
2018-09-09T04:18:15.260Z,4.90
2018-09-09T04:19:15.255Z,6.30
2018-09-09T04:20:15.283Z,6.40
2018-09-09T04:21:15.251Z,4.90
2018-09-09T04:22:15.257Z,5.70
2018-09-09T04:23:15.248Z,5.50
2018-09-09T04:24:15.244Z,5.80
2018-09-09T04:25:15.282Z,5.80
2018-09-09T04:26:15.247Z,5.70
2018-09-09T04:27:15.241Z,6.60
2018-09-09T04:28:15.245Z,5.20
2018-09-09T04:29:15.242Z,5.60
2018-09-09T04:30:15.273Z,6.70
2018-09-09T04:31:15.237Z,5.90
2018-09-09T04:32:15.253Z,5.20
2018-09-09T04:33:15.235Z,4.60
2018-09-09T04:34:15.233Z,4.70
2018-09-09T04:35:15.257Z,5.20
2018-09-09T04:36:15.229Z,4.80
2018-09-09T04:37:15.228Z,4.70
2018-09-09T04:38:15.232Z,4.70
2018-09-09T04:39:15.229Z,5.60
2018-09-09T04:40:15.251Z,4.90
2018-09-09T04:41:15.228Z,5.60
2018-09-09T04:42:15.224Z,4.20
2018-09-09T04:43:15.218Z,4.50
2018-09-09T04:44:15.231Z,5.40
2018-09-09T04:45:15.244Z,4.70
2018-09-09T04:46:15.216Z,5.70
2018-09-09T04:47:15.214Z,4.60
2018-09-09T04:48:15.241Z,6.30
2018-09-09T04:49:15.211Z,5.50
2018-09-09T04:50:15.211Z,5.50
2018-09-09T04:51:15.236Z,5.40
2018-09-09T04:52:15.231Z,6.60
2018-09-09T04:53:15.203Z,5.50
2018-09-09T04:54:15.197Z,4.60
2018-09-09T04:55:15.199Z,5.10
2018-09-09T04:56:15.232Z,4.90
2018-09-09T04:57:15.197Z,5.60
2018-09-09T04:58:15.205Z,6.20
2018-09-09T04:59:15.192Z,4.80
2018-09-09T05:00:15.197Z,4.40
2018-09-09T05:01:15.238Z,5.00
2018-09-09T05:02:15.191Z,4.80
2018-09-09T05:03:15.189Z,4.70
2018-09-09T05:04:15.184Z,4.80
2018-09-09T05:05:15.192Z,5.10
2018-09-09T05:06:15.227Z,4.40
2018-09-09T05:07:15.181Z,4.70
2018-09-09T05:08:15.223Z,4.50
2018-09-09T05:09:15.177Z,7.00
2018-09-09T05:10:15.178Z,4.90
2018-09-09T05:11:15.183Z,4.80
2018-09-09T05:12:15.203Z,4.90
2018-09-09T05:13:15.173Z,5.70
2018-09-09T05:14:15.173Z,5.40
2018-09-09T05:15:15.183Z,7.10
2018-09-09T05:16:15.199Z,5.60
2018-09-09T05:17:15.166Z,5.50
2018-09-09T05:18:15.214Z,4.90
2018-09-09T05:19:15.167Z,5.20
2018-09-09T05:20:15.164Z,5.20
2018-09-09T05:21:15.163Z,4.70
2018-09-09T05:22:15.197Z,5.10
2018-09-09T05:23:15.159Z,4.60
2018-09-09T05:24:15.159Z,5.10
2018-09-09T05:25:15.168Z,5.10
2018-09-09T05:26:15.156Z,4.80
2018-09-09T05:27:15.180Z,4.20
2018-09-09T05:28:15.155Z,4.30
2018-09-09T05:29:15.156Z,4.30
2018-09-09T05:30:15.150Z,5.00
2018-09-09T05:31:15.175Z,4.90
2018-09-09T05:32:15.166Z,4.30
2018-09-09T05:33:15.148Z,4.00
2018-09-09T05:34:15.148Z,4.60
2018-09-09T05:35:15.147Z,5.20
2018-09-09T05:36:15.168Z,4.30
2018-09-09T05:37:15.143Z,5.60
2018-09-09T05:38:15.144Z,4.30
2018-09-09T05:39:15.153Z,4.10
2018-09-09T05:40:15.139Z,4.70
2018-09-09T05:41:15.168Z,4.90
2018-09-09T05:42:15.204Z,5.50
2018-09-09T05:43:15.161Z,4.70
2018-09-09T05:44:15.130Z,5.40
2018-09-09T05:45:15.131Z,4.90
2018-09-09T05:46:15.150Z,5.40
2018-09-09T05:47:15.158Z,5.60
2018-09-09T05:48:15.134Z,5.40
2018-09-09T05:49:15.144Z,4.90
2018-09-09T05:50:15.131Z,4.70
2018-09-09T05:51:15.157Z,6.30
2018-09-09T05:52:15.125Z,5.00
2018-09-09T05:53:15.126Z,6.20
2018-09-09T05:54:15.128Z,5.40
2018-09-09T05:55:15.129Z,4.00
2018-09-09T05:56:15.167Z,5.00
2018-09-09T05:57:15.123Z,6.00
2018-09-09T05:58:15.125Z,4.70
2018-09-09T05:59:15.123Z,5.60
2018-09-09T06:00:15.126Z,6.20
2018-09-09T06:01:15.149Z,5.00
2018-09-09T06:02:15.127Z,5.30
2018-09-09T06:03:15.125Z,4.00
2018-09-09T06:04:15.120Z,4.30
2018-09-09T06:05:15.121Z,5.20
2018-09-09T06:06:15.152Z,4.30
2018-09-09T06:07:15.121Z,4.60
2018-09-09T06:08:15.121Z,3.00
2018-09-09T06:09:15.122Z,4.20
2018-09-09T06:10:15.119Z,3.40
2018-09-09T06:11:15.147Z,5.10
2018-09-09T06:12:15.156Z,3.50
2018-09-09T06:13:15.113Z,3.70
2018-09-09T06:14:15.115Z,3.60
2018-09-09T06:15:15.117Z,3.60
2018-09-09T06:16:15.117Z,4.10
2018-09-09T06:17:15.169Z,4.00
2018-09-09T06:18:15.118Z,4.10
2018-09-09T06:19:15.118Z,4.30
2018-09-09T06:20:15.142Z,4.70
2018-09-09T06:21:15.118Z,4.50
2018-09-09T06:22:15.143Z,4.00
2018-09-09T06:23:15.114Z,4.00
2018-09-09T06:24:15.115Z,5.50
2018-09-09T06:25:15.129Z,4.90
2018-09-09T06:26:15.117Z,4.20
2018-09-09T06:27:15.156Z,5.00
2018-09-09T06:28:15.164Z,4.20
2018-09-09T06:29:15.120Z,4.90
2018-09-09T06:30:15.119Z,4.10
2018-09-09T06:31:15.116Z,4.10
2018-09-09T06:32:15.143Z,4.10
2018-09-09T06:33:15.120Z,4.70
2018-09-09T06:34:15.117Z,4.80
2018-09-09T06:35:15.116Z,4.20
2018-09-09T06:36:15.120Z,5.10
2018-09-09T06:37:15.149Z,4.50
2018-09-09T06:38:15.128Z,4.40
2018-09-09T06:39:15.116Z,5.40
2018-09-09T06:40:15.116Z,4.60
2018-09-09T06:41:15.132Z,4.30
2018-09-09T06:42:15.144Z,6.60
2018-09-09T06:43:15.121Z,5.30
2018-09-09T06:44:15.122Z,4.00
2018-09-09T06:45:15.123Z,3.80
2018-09-09T06:46:15.121Z,4.30
2018-09-09T06:47:15.152Z,3.80
2018-09-09T06:48:15.122Z,3.80
2018-09-09T06:49:15.126Z,4.00
2018-09-09T06:50:15.125Z,3.80
2018-09-09T06:51:15.150Z,5.30
2018-09-09T06:52:15.154Z,5.10
2018-09-09T06:53:15.130Z,4.90
2018-09-09T06:54:15.127Z,3.90
2018-09-09T06:55:15.154Z,4.30
2018-09-09T06:56:15.135Z,4.30
2018-09-09T06:57:15.168Z,4.40
2018-09-09T06:58:15.146Z,4.60
2018-09-09T06:59:15.137Z,3.90
2018-09-09T07:00:15.143Z,4.80
2018-09-09T07:01:15.144Z,4.40
2018-09-09T07:02:15.182Z,4.70
2018-09-09T07:03:15.148Z,4.10
2018-09-09T07:04:15.149Z,4.20
2018-09-09T07:05:15.168Z,5.50
2018-09-09T07:06:15.157Z,4.90
2018-09-09T07:07:15.181Z,3.90
2018-09-09T07:08:15.156Z,5.20
2018-09-09T07:09:15.157Z,4.90
2018-09-09T07:10:15.157Z,6.10
2018-09-09T07:11:15.249Z,4.60
2018-09-09T07:12:15.189Z,3.80
2018-09-09T07:13:15.161Z,4.20
2018-09-09T07:14:15.166Z,4.60
2018-09-09T07:15:15.166Z,4.10
2018-09-09T07:16:15.212Z,3.90
2018-09-09T07:17:15.174Z,4.70
2018-09-09T07:18:15.175Z,5.20
2018-09-09T07:19:15.228Z,5.60
2018-09-09T07:20:15.174Z,4.40
2018-09-09T07:21:15.179Z,4.70
2018-09-09T07:22:15.210Z,5.40
2018-09-09T07:23:15.182Z,3.40
2018-09-09T07:24:15.185Z,3.30
2018-09-09T07:25:15.191Z,5.00
2018-09-09T07:26:15.188Z,4.40
2018-09-09T07:27:15.213Z,4.90
2018-09-09T07:28:15.191Z,4.60
2018-09-09T07:29:15.191Z,3.90
2018-09-09T07:30:15.196Z,3.40
2018-09-09T07:31:15.268Z,4.60
2018-09-09T07:32:15.219Z,4.20
2018-09-09T07:33:15.204Z,5.20
2018-09-09T07:34:15.223Z,4.60
2018-09-09T07:35:15.219Z,4.30
2018-09-09T07:36:15.252Z,3.80
2018-09-09T07:37:15.224Z,4.60
2018-09-09T07:38:15.240Z,3.80
2018-09-09T07:39:15.214Z,3.40
2018-09-09T07:40:15.217Z,3.50
2018-09-09T07:41:15.222Z,5.10
2018-09-09T07:42:15.249Z,3.70
2018-09-09T07:43:15.897Z,4.60
2018-09-09T07:44:15.230Z,3.60
2018-09-09T07:45:15.235Z,4.00
2018-09-09T07:46:15.257Z,3.10
2018-09-09T07:47:15.306Z,3.70
2018-09-09T07:48:15.243Z,2.90
2018-09-09T07:49:15.243Z,4.30
2018-09-09T07:50:15.267Z,3.00
2018-09-09T07:51:15.262Z,3.20
2018-09-09T07:52:15.279Z,3.80
2018-09-09T07:53:15.256Z,3.20
2018-09-09T07:54:15.260Z,3.50
2018-09-09T07:55:15.291Z,3.50
2018-09-09T07:56:15.269Z,3.60
2018-09-09T07:57:15.280Z,4.10
2018-09-09T07:58:15.303Z,3.70
2018-09-09T07:59:15.283Z,3.30
2018-09-09T08:00:15.309Z,4.50
2018-09-09T08:01:15.290Z,4.20
2018-09-09T08:02:15.297Z,4.30
2018-09-09T08:03:15.327Z,3.40
2018-09-09T08:04:15.307Z,3.60
2018-09-09T08:05:15.316Z,3.10
2018-09-09T08:06:15.329Z,4.30
2018-09-09T08:07:15.321Z,5.70
2018-09-09T08:08:15.369Z,3.40
2018-09-09T08:09:15.981Z,3.90
2018-09-09T08:10:15.377Z,3.20
2018-09-09T08:11:15.349Z,3.90
2018-09-09T08:12:15.396Z,3.70
2018-09-09T08:13:15.362Z,3.70
2018-09-09T08:14:15.402Z,3.00
2018-09-09T08:15:15.390Z,3.50
2018-09-09T08:16:15.391Z,3.70
2018-09-09T08:17:15.913Z,4.60
2018-09-09T08:18:15.446Z,4.10
2018-09-09T08:19:15.438Z,5.00
2018-09-09T08:20:15.421Z,4.30
2018-09-09T08:21:15.432Z,3.90
2018-09-09T08:22:15.456Z,3.50
2018-09-09T08:23:15.471Z,3.30
2018-09-09T08:24:15.484Z,3.70
2018-09-09T08:25:15.463Z,3.40
2018-09-09T08:26:16.411Z,3.50
2018-09-09T08:27:15.488Z,3.10
2018-09-09T08:28:15.521Z,2.70
2018-09-09T08:29:15.500Z,3.90
2018-09-09T08:30:15.539Z,5.30
2018-09-09T08:31:15.519Z,2.70
2018-09-09T08:32:15.532Z,2.80
2018-09-09T08:33:15.538Z,4.70
2018-09-09T08:34:15.573Z,4.00
2018-09-09T08:35:15.557Z,3.50
2018-09-09T08:36:15.567Z,2.70
2018-09-09T08:37:15.592Z,3.30
2018-09-09T08:38:18.022Z,3.10
2018-09-09T08:39:15.627Z,3.10
2018-09-09T08:40:15.609Z,2.70
2018-09-09T08:41:15.611Z,3.70
2018-09-09T08:42:15.627Z,4.20
2018-09-09T08:43:15.630Z,3.40
2018-09-09T08:44:15.670Z,4.10
2018-09-09T08:45:15.651Z,2.60
2018-09-09T08:46:15.666Z,3.60
2018-09-09T08:47:15.669Z,3.60
2018-09-09T08:48:15.720Z,3.40
2018-09-09T08:49:15.687Z,3.20
2018-09-09T08:50:15.699Z,3.40
2018-09-09T08:51:15.708Z,3.60
2018-09-09T08:52:15.734Z,2.90
2018-09-09T08:53:15.756Z,2.90
2018-09-09T08:54:15.737Z,3.60
2018-09-09T08:55:15.747Z,3.40
2018-09-09T08:56:15.758Z,2.80
2018-09-09T08:57:15.765Z,3.10
2018-09-09T08:58:15.807Z,3.20
2018-09-09T08:59:15.785Z,3.00
2018-09-09T09:00:15.800Z,2.70
2018-09-09T09:01:15.816Z,3.10
2018-09-09T09:02:15.824Z,3.70
2018-09-09T09:03:15.864Z,2.20
2018-09-09T09:04:15.849Z,3.60
2018-09-09T09:05:15.865Z,3.10
2018-09-09T09:06:15.875Z,2.40
2018-09-09T09:07:15.887Z,2.70
2018-09-09T09:08:15.933Z,2.00
2018-09-09T09:09:15.917Z,3.10
2018-09-09T09:10:15.925Z,2.80
2018-09-09T09:11:15.933Z,3.70
2018-09-09T09:12:15.978Z,3.10
2018-09-09T09:13:15.967Z,2.40
2018-09-09T09:14:15.976Z,2.50
2018-09-09T09:15:15.989Z,3.00
2018-09-09T09:16:16.019Z,2.20
2018-09-09T09:17:16.012Z,2.00
2018-09-09T09:18:16.052Z,2.10
2018-09-09T09:19:16.033Z,3.60
2018-09-09T09:20:16.043Z,2.50
2018-09-09T09:21:16.052Z,2.80
2018-09-09T09:22:16.093Z,2.90
2018-09-09T09:23:16.074Z,2.00
2018-09-09T09:24:16.091Z,2.60
2018-09-09T09:25:16.097Z,2.50
2018-09-09T09:26:16.104Z,1.80
2018-09-09T09:27:16.148Z,2.40
2018-09-09T09:28:16.144Z,2.80
2018-09-09T09:29:16.136Z,2.20
2018-09-09T09:30:16.144Z,3.50
2018-09-09T09:31:16.162Z,3.00
2018-09-09T09:32:16.189Z,2.10
2018-09-09T09:33:16.175Z,1.60
2018-09-09T09:34:16.182Z,2.20
2018-09-09T09:35:16.199Z,4.60
2018-09-09T09:36:16.197Z,3.60
2018-09-09T09:37:16.230Z,2.30
2018-09-09T09:38:16.218Z,2.10
2018-09-09T09:39:16.222Z,2.90
2018-09-09T09:40:17.007Z,3.20
2018-09-09T09:41:18.413Z,2.80
2018-09-09T09:42:16.494Z,2.70
2018-09-09T09:43:19.809Z,2.20
2018-09-09T09:44:17.089Z,2.40
2018-09-09T09:45:16.299Z,1.60
2018-09-09T09:46:16.331Z,1.60
2018-09-09T09:47:16.374Z,2.20
2018-09-09T09:48:16.978Z,3.90
2018-09-09T09:49:19.818Z,2.30
2018-09-09T09:50:17.714Z,3.00
2018-09-09T09:51:16.730Z,2.40
2018-09-09T09:52:17.756Z,1.70
2018-09-09T09:53:16.785Z,2.30
2018-09-09T09:54:19.487Z,3.50
2018-09-09T09:55:31.706Z,3.30
2018-09-09T09:56:21.440Z,2.40
2018-09-09T09:57:17.559Z,1.90
2018-09-09T09:58:21.006Z,3.10
2018-09-09T09:59:16.473Z,2.70
2018-09-09T10:00:17.006Z,2.20
2018-09-09T10:01:17.904Z,2.30
2018-09-09T10:02:16.958Z,2.80
2018-09-09T10:03:16.453Z,3.70
2018-09-09T10:04:16.462Z,2.10
2018-09-09T10:05:16.451Z,2.30
2018-09-09T10:06:16.459Z,2.30
2018-09-09T10:07:16.462Z,2.60
2018-09-09T10:08:16.496Z,2.00
2018-09-09T10:09:16.474Z,5.80
2018-09-09T10:10:16.484Z,2.70
2018-09-09T10:11:16.488Z,2.60
2018-09-09T10:12:16.524Z,2.60
2018-09-09T10:13:16.509Z,3.00
2018-09-09T10:14:16.515Z,2.30
2018-09-09T10:15:16.558Z,2.40
2018-09-09T10:16:16.538Z,3.70
2018-09-09T10:17:16.574Z,3.50
2018-09-09T10:18:16.563Z,2.10
2018-09-09T10:19:16.557Z,3.00
2018-09-09T10:20:16.566Z,2.50
2018-09-09T10:21:16.581Z,2.70
2018-09-09T10:22:16.615Z,2.90
2018-09-09T10:23:16.601Z,3.10
2018-09-09T10:24:16.606Z,2.50
2018-09-09T10:25:16.634Z,3.90
2018-09-09T10:26:16.622Z,2.90
2018-09-09T10:27:16.658Z,1.90
2018-09-09T10:28:16.667Z,1.90
2018-09-09T10:29:16.664Z,3.20
2018-09-09T10:30:16.657Z,2.60
2018-09-09T10:31:16.664Z,4.20
2018-09-09T10:32:16.703Z,4.40
2018-09-09T10:33:16.719Z,2.00
2018-09-09T10:34:16.696Z,2.50
2018-09-09T10:35:16.704Z,2.80
2018-09-09T10:36:16.717Z,2.30
2018-09-09T10:37:16.753Z,2.20
2018-09-09T10:38:16.769Z,3.20
2018-09-09T10:39:16.753Z,2.40
2018-09-09T10:40:16.769Z,3.00
2018-09-09T10:41:16.777Z,1.50
2018-09-09T10:42:16.817Z,1.90
2018-09-09T10:43:16.833Z,3.80
2018-09-09T10:44:16.826Z,1.90
2018-09-09T10:45:16.834Z,1.60
2018-09-09T10:46:16.931Z,2.30
2018-09-09T10:47:16.914Z,1.90
2018-09-09T10:48:16.903Z,2.20
2018-09-09T10:49:16.898Z,2.20
2018-09-09T10:50:16.911Z,3.30
2018-09-09T10:51:16.955Z,1.60
2018-09-09T10:52:16.971Z,2.30
2018-09-09T10:53:17.071Z,2.20
2018-09-09T10:54:16.975Z,1.90
2018-09-09T10:55:16.990Z,3.10
2018-09-09T10:56:17.011Z,1.30
2018-09-09T10:57:17.056Z,1.30
2018-09-09T10:58:17.044Z,1.50
2018-09-09T10:59:17.061Z,1.70
2018-09-09T11:00:17.080Z,1.90
2018-09-09T11:01:17.092Z,2.80
2018-09-09T11:02:17.161Z,3.10
2018-09-09T11:03:17.134Z,1.60
2018-09-09T11:04:17.148Z,1.40
2018-09-09T11:05:17.170Z,1.80
2018-09-09T11:06:17.202Z,3.10
2018-09-09T11:07:17.230Z,2.40
2018-09-09T11:08:17.222Z,1.30
2018-09-09T11:09:17.242Z,2.60
2018-09-09T11:10:17.266Z,1.70
2018-09-09T11:11:17.274Z,1.70
2018-09-09T11:12:17.327Z,1.60
2018-09-09T11:13:17.309Z,1.40
2018-09-09T11:14:17.327Z,1.60
2018-09-09T11:15:17.348Z,2.80
2018-09-09T11:16:17.367Z,1.40
2018-09-09T11:17:17.429Z,1.30
2018-09-09T11:18:17.434Z,1.40
2018-09-09T11:19:17.419Z,1.60
2018-09-09T11:20:17.444Z,1.40
2018-09-09T11:21:17.453Z,1.90
2018-09-09T11:22:17.500Z,2.20
2018-09-09T11:23:17.493Z,2.00
2018-09-09T11:24:17.509Z,2.00
2018-09-09T11:25:17.532Z,1.70
2018-09-09T11:26:17.545Z,2.00
2018-09-09T11:27:17.586Z,0.90
2018-09-09T11:28:17.578Z,1.80
2018-09-09T11:29:17.594Z,1.70
2018-09-09T11:30:17.611Z,1.80
2018-09-09T11:31:17.631Z,1.30
2018-09-09T11:32:17.678Z,4.00
2018-09-09T11:33:17.660Z,1.80
2018-09-09T11:34:17.679Z,1.20
2018-09-09T11:35:17.696Z,2.00
2018-09-09T11:36:17.768Z,1.30
2018-09-09T11:37:17.763Z,1.60
2018-09-09T11:38:17.743Z,1.20
2018-09-09T11:39:17.762Z,1.70
2018-09-09T11:40:17.799Z,1.80
2018-09-09T11:41:17.788Z,1.60
2018-09-09T11:42:17.836Z,1.90
2018-09-09T11:43:17.825Z,1.70
2018-09-09T11:44:17.845Z,3.60
2018-09-09T11:45:17.864Z,1.70
2018-09-09T11:46:17.874Z,1.10
2018-09-09T11:47:17.929Z,2.00
2018-09-09T11:48:17.908Z,1.50
2018-09-09T11:49:17.925Z,1.40
2018-09-09T11:50:17.939Z,1.30
2018-09-09T11:51:17.954Z,1.50
2018-09-09T11:52:17.992Z,2.00
2018-09-09T11:53:18.054Z,1.80
2018-09-09T11:54:18.002Z,1.90
2018-09-09T11:55:18.013Z,1.60
2018-09-09T11:56:18.031Z,1.60
2018-09-09T11:57:18.080Z,1.20
2018-09-09T11:58:18.064Z,1.30
2018-09-09T11:59:18.090Z,2.30
2018-09-09T12:00:18.103Z,1.30
2018-09-09T12:01:18.112Z,1.40
2018-09-09T12:02:18.181Z,1.00
2018-09-09T12:03:18.146Z,1.80
2018-09-09T12:04:18.157Z,1.70
2018-09-09T12:05:18.176Z,2.10
2018-09-09T12:06:18.204Z,1.50
2018-09-09T12:07:18.228Z,1.10
2018-09-09T12:08:18.245Z,1.20
2018-09-09T12:09:18.226Z,2.60
2018-09-09T12:10:18.254Z,1.40
2018-09-09T12:11:18.254Z,2.30
2018-09-09T12:12:18.274Z,3.10
2018-09-09T12:13:18.313Z,1.20
2018-09-09T12:14:18.289Z,1.80
2018-09-09T12:15:18.306Z,1.50
2018-09-09T12:16:18.318Z,1.20
2018-09-09T12:17:18.339Z,1.20
2018-09-09T12:18:18.371Z,1.80
2018-09-09T12:19:18.356Z,1.30
2018-09-09T12:20:18.365Z,1.90
2018-09-09T12:21:18.382Z,1.60
2018-09-09T12:22:18.398Z,2.10
2018-09-09T12:23:18.434Z,1.50
2018-09-09T12:24:18.417Z,1.90
2018-09-09T12:25:18.424Z,3.70
2018-09-09T12:26:18.456Z,1.50
2018-09-09T12:27:18.449Z,2.30
2018-09-09T12:28:18.477Z,1.30
2018-09-09T12:29:18.469Z,2.40
2018-09-09T12:30:18.491Z,1.50
2018-09-09T12:31:18.493Z,2.00
2018-09-09T12:32:18.576Z,1.10
2018-09-09T12:33:18.535Z,1.80
2018-09-09T12:34:18.525Z,1.60
2018-09-09T12:35:18.532Z,1.50
2018-09-09T12:36:18.564Z,2.30
2018-09-09T12:37:18.592Z,1.70
2018-09-09T12:38:18.570Z,1.20
2018-09-09T12:39:18.580Z,1.30
2018-09-09T12:40:18.596Z,1.20
2018-09-09T12:41:18.600Z,1.70
2018-09-09T12:42:18.643Z,3.10
2018-09-09T12:43:18.640Z,1.80
2018-09-09T12:44:18.636Z,1.00
2018-09-09T12:45:18.645Z,1.50
2018-09-09T12:46:18.661Z,1.50
2018-09-09T12:47:18.753Z,2.00
2018-09-09T12:48:18.690Z,1.70
2018-09-09T12:49:18.697Z,1.80
2018-09-09T12:50:18.737Z,1.40
2018-09-09T12:51:18.731Z,1.90
2018-09-09T12:52:18.767Z,1.50
2018-09-09T12:53:18.742Z,2.20
2018-09-09T12:54:18.790Z,1.60
2018-09-09T12:55:18.790Z,2.00
2018-09-09T12:56:18.783Z,1.50
2018-09-09T12:57:18.823Z,1.10
2018-09-09T12:58:18.839Z,2.40
2018-09-09T12:59:18.831Z,1.90
2018-09-09T13:00:18.842Z,1.70
2018-09-09T13:01:18.857Z,1.30
2018-09-09T13:02:18.892Z,1.20
2018-09-09T13:03:18.892Z,1.70
2018-09-09T13:04:18.888Z,1.70
2018-09-09T13:05:18.904Z,1.60
2018-09-09T13:06:18.904Z,1.50
2018-09-09T13:07:18.962Z,2.20
2018-09-09T13:08:18.933Z,2.30
2018-09-09T13:09:18.970Z,2.40
2018-09-09T13:10:18.961Z,2.20
2018-09-09T13:11:18.977Z,3.00
2018-09-09T13:12:19.018Z,1.50
2018-09-09T13:13:19.021Z,2.40
2018-09-09T13:14:19.014Z,1.30
2018-09-09T13:15:19.022Z,2.00
2018-09-09T13:16:19.042Z,2.60
2018-09-09T13:17:19.084Z,2.30
2018-09-09T13:18:19.068Z,3.20